Time;durP1;ratioP1;P1;durP2;ratioP2;P2;SDS_P1;SDS_P2;PMS_P1;PMS_P2;Temp;Humidity;BMP_temperature;BMP_pressure;BME280_temperature;BME280_humidity;BME280_pressure;Samples;Min_cycle;Max_cycle;Signal;HPM_P1;HPM_P2
2021/01/16 00:01:59;;;;;;;9.32;4.93;;;;;;;-2.65;69.10;102374.81;5138198;27;20226;-57
2021/01/16 00:04:26;;;;;;;11.95;5.18;;;;;;;-2.68;69.34;102374.44;5139224;27;20256;-57
2021/01/16 00:06:53;;;;;;;11.57;5.53;;;;;;;-2.64;68.69;102373.19;5139879;27;20529;-58
2021/01/16 00:09:21;;;;;;;11.73;5.82;;;;;;;-2.62;68.67;102365.06;5137577;27;20242;-53
2021/01/16 00:11:47;;;;;;;13.20;5.50;;;;;;;-2.76;68.89;102370.09;5139992;27;20201;-56
2021/01/16 00:14:14;;;;;;;12.18;5.03;;;;;;;-2.74;69.51;102358.53;5137118;27;20321;-54
2021/01/16 00:16:41;;;;;;;10.45;4.80;;;;;;;-2.77;69.41;102348.06;5139531;27;20437;-55
2021/01/16 00:19:07;;;;;;;11.77;4.72;;;;;;;-2.84;69.04;102346.41;5137397;27;20245;-56
2021/01/16 00:21:35;;;;;;;13.13;5.65;;;;;;;-2.83;69.09;102342.28;5139476;27;20280;-56
2021/01/16 00:24:01;;;;;;;12.25;5.32;;;;;;;-2.91;68.38;102342.25;5136979;27;20238;-54
2021/01/16 00:26:29;;;;;;;12.35;6.05;;;;;;;-2.85;69.19;102343.00;5139213;27;20666;-52
2021/01/16 00:28:55;;;;;;;14.35;5.90;;;;;;;-2.92;68.65;102352.16;5137372;27;20238;-57
2021/01/16 00:31:22;;;;;;;12.63;5.70;;;;;;;-2.99;68.46;102350.50;5139308;27;20563;-55
2021/01/16 00:33:49;;;;;;;12.90;5.65;;;;;;;-3.05;68.68;102350.66;5137544;27;20280;-58
2021/01/16 00:36:15;;;;;;;14.70;6.13;;;;;;;-3.01;69.26;102342.75;5138884;27;20215;-56
2021/01/16 00:38:43;;;;;;;18.33;6.07;;;;;;;-2.94;68.67;102346.00;5137169;27;20317;-56
2021/01/16 00:41:09;;;;;;;12.90;5.65;;;;;;;-2.99;70.20;102340.38;5138716;27;20215;-56
2021/01/16 00:43:37;;;;;;;11.68;5.65;;;;;;;-2.99;69.20;102343.84;5136754;27;20311;-58
2021/01/16 00:46:04;;;;;;;13.20;5.85;;;;;;;-2.88;69.27;102342.59;5138729;27;20301;-56
2021/01/16 00:48:31;;;;;;;15.68;5.28;;;;;;;-2.95;68.81;102347.63;5136691;27;20540;-57
2021/01/16 00:50:58;;;;;;;10.55;5.03;;;;;;;-2.93;68.23;102343.66;5138810;27;20293;-55
2021/01/16 00:53:25;;;;;;;15.95;6.05;;;;;;;-2.93;68.83;102350.34;5135611;27;20230;-57
2021/01/16 00:55:52;;;;;;;11.85;5.40;;;;;;;-2.93;69.42;102341.13;5138384;27;20498;-54
2021/01/16 00:58:20;;;;;;;12.43;4.80;;;;;;;-2.94;69.44;102339.34;5136869;27;20624;-57
2021/01/16 01:00:49;;;;;;;11.55;5.40;;;;;;;-2.90;68.92;102341.53;5137785;27;20260;-56
2021/01/16 01:03:19;;;;;;;12.73;5.75;;;;;;;-2.91;68.74;102329.63;5137037;27;20230;-55
2021/01/16 01:05:46;;;;;;;17.20;5.25;;;;;;;-2.88;68.68;102335.03;5138512;27;20219;-57
2021/01/16 01:08:12;;;;;;;10.77;5.47;;;;;;;-2.90;68.24;102330.50;5136853;27;20675;-56
2021/01/16 01:10:41;;;;;;;12.82;5.28;;;;;;;-2.91;69.42;102334.69;5138533;27;20203;-56
2021/01/16 01:13:08;;;;;;;9.82;5.18;;;;;;;-2.93;69.03;102340.25;5136364;27;20261;-56
2021/01/16 01:15:34;;;;;;;10.55;5.15;;;;;;;-2.96;69.02;102334.81;5138293;27;20305;-57
2021/01/16 01:18:03;;;;;;;11.20;5.28;;;;;;;-2.88;68.79;102335.03;5136671;27;20242;-57
2021/01/16 01:20:30;;;;;;;11.35;5.45;;;;;;;-2.87;69.17;102331.78;5138424;27;20550;-57
2021/01/16 01:22:57;;;;;;;10.88;4.70;;;;;;;-2.86;69.26;102333.59;5136112;27;20270;-57
2021/01/16 01:25:24;;;;;;;12.23;6.05;;;;;;;-2.93;68.47;102332.69;5137765;27;20632;-56
2021/01/16 01:27:52;;;;;;;18.90;5.32;;;;;;;-3.00;68.59;102333.53;5136385;27;20314;-53
2021/01/16 01:30:20;;;;;;;10.85;5.07;;;;;;;-2.97;68.45;102338.97;5138127;27;20618;-58
2021/01/16 01:32:47;;;;;;;33.47;13.77;;;;;;;-2.94;70.84;102338.41;5136204;27;20238;-57
2021/01/16 01:35:17;;;;;;;32.40;13.18;;;;;;;-2.60;71.98;102338.34;5137362;27;20237;-57
2021/01/16 01:37:45;;;;;;;33.97;14.80;;;;;;;-2.70;71.58;102337.97;5135975;27;20599;-57
2021/01/16 01:40:14;;;;;;;16.60;7.25;;;;;;;-2.56;69.87;102333.69;5137914;27;20202;-57
2021/01/16 01:42:41;;;;;;;23.38;10.88;;;;;;;-2.65;70.52;102324.28;5136097;27;20288;-57
2021/01/16 01:45:10;;;;;;;12.45;5.50;;;;;;;-2.66;68.52;102339.25;5137300;27;20619;-57
2021/01/16 01:47:38;;;;;;;16.83;6.57;;;;;;;-2.63;70.26;102337.06;5136184;27;20226;-56
2021/01/16 01:50:06;;;;;;;14.35;6.20;;;;;;;-2.64;69.30;102333.66;5137923;27;20234;-58
2021/01/16 01:52:34;;;;;;;10.32;5.53;;;;;;;-2.50;68.62;102337.84;5136013;27;20325;-56
2021/01/16 01:55:03;;;;;;;16.77;6.35;;;;;;;-2.66;68.22;102341.78;5137306;27;20240;-56
2021/01/16 01:57:33;;;;;;;13.35;5.90;;;;;;;-2.75;68.87;102331.47;5136012;27;20253;-56
2021/01/16 02:00:01;;;;;;;11.57;5.53;;;;;;;-2.82;68.95;102337.38;5137567;27;20630;-56
2021/01/16 02:02:32;;;;;;;11.45;4.57;;;;;;;-2.81;69.04;102336.69;5131541;27;20235;-58
2021/01/16 02:05:00;;;;;;;13.50;5.07;;;;;;;-2.77;68.39;102332.91;5137204;27;20201;-55
2021/01/16 02:07:28;;;;;;;10.13;4.75;;;;;;;-2.79;69.15;102335.25;5135341;27;20235;-57
2021/01/16 02:09:56;;;;;;;13.15;4.90;;;;;;;-2.75;68.97;102328.94;5137702;27;20234;-59
2021/01/16 02:12:23;;;;;;;10.82;5.25;;;;;;;-2.78;68.93;102324.41;5135725;27;20233;-54
2021/01/16 02:14:58;;;;;;;11.60;5.25;;;;;;;-2.78;69.29;102331.09;5137257;27;20294;-57
2021/01/16 02:17:26;;;;;;;8.38;4.30;;;;;;;-2.79;69.05;102324.22;5135462;27;20226;-57
2021/01/16 02:20:09;;;;;;;11.98;5.07;;;;;;;-2.79;69.09;102319.16;5133553;27;20220;-56
2021/01/16 02:22:48;;;;;;;11.38;4.72;;;;;;;-2.87;69.51;102316.63;5134738;27;20514;-57
2021/01/16 02:25:18;;;;;;;11.38;4.68;;;;;;;-2.91;70.17;102322.03;5136774;27;20199;-58
2021/01/16 02:27:55;;;;;;;12.00;4.72;;;;;;;-2.91;69.83;102317.00;5135226;27;20265;-56
2021/01/16 02:30:23;;;;;;;16.17;5.63;;;;;;;-2.88;70.66;102308.84;5136813;27;20293;-56
2021/01/16 02:32:51;;;;;;;12.50;5.55;;;;;;;-2.85;70.27;102302.56;5135132;27;20231;-56
2021/01/16 02:35:20;;;;;;;12.35;5.00;;;;;;;-2.82;71.14;102298.59;5136625;27;20279;-58
2021/01/16 02:37:54;;;;;;;14.80;5.50;;;;;;;-2.93;71.22;102299.84;5135207;27;20309;-53
2021/01/16 02:40:23;;;;;;;10.60;4.60;;;;;;;-2.97;71.12;102295.13;5136789;27;20182;-55
2021/01/16 02:42:59;;;;;;;12.40;5.35;;;;;;;-2.87;70.84;102291.34;5134904;27;20301;-53
2021/01/16 02:45:29;;;;;;;17.08;5.82;;;;;;;-2.90;71.35;102297.66;5136497;27;20318;-57
2021/01/16 02:48:04;;;;;;;12.25;5.40;;;;;;;-2.81;70.90;102285.25;5135283;27;20238;-57
2021/01/16 02:50:33;;;;;;;15.15;5.53;;;;;;;-2.85;71.96;102289.94;5136470;27;20198;-57
2021/01/16 02:53:02;;;;;;;12.85;5.00;;;;;;;-2.85;71.57;102289.94;5135191;27;20538;-57
2021/01/16 02:55:29;;;;;;;13.85;5.38;;;;;;;-2.87;71.40;102288.81;5136541;28;20219;-57
2021/01/16 02:57:56;;;;;;;11.50;5.43;;;;;;;-2.85;71.39;102284.88;5135279;27;20238;-58
2021/01/16 03:00:23;;;;;;;12.70;5.93;;;;;;;-2.82;72.58;102279.25;5136867;28;20277;-55
2021/01/16 03:02:50;;;;;;;16.15;6.15;;;;;;;-2.86;72.33;102285.56;5134880;27;20629;-57
2021/01/16 03:05:17;;;;;;;11.63;6.07;;;;;;;-2.83;72.35;102282.53;5136375;28;20206;-57
2021/01/16 03:07:45;;;;;;;9.07;4.38;;;;;;;-2.82;71.61;102275.84;5134903;27;20235;-56
2021/01/16 03:10:12;;;;;;;15.65;6.35;;;;;;;-2.85;71.51;102279.84;5136242;28;20198;-58
2021/01/16 03:12:38;;;;;;;12.30;5.30;;;;;;;-2.85;71.66;102278.91;5134732;28;20249;-58
2021/01/16 03:15:11;;;;;;;12.73;6.20;;;;;;;-2.88;71.54;102278.53;5136405;28;20205;-55
2021/01/16 03:17:44;;;;;;;16.65;6.25;;;;;;;-2.91;72.25;102281.63;5136481;27;20230;-56
2021/01/16 03:20:12;;;;;;;13.30;5.78;;;;;;;-2.89;71.50;102285.22;5141066;27;20504;-56
2021/01/16 03:22:39;;;;;;;10.85;5.65;;;;;;;-2.96;72.47;102270.06;5138784;27;20673;-58
2021/01/16 03:25:06;;;;;;;12.88;5.88;;;;;;;-2.87;72.46;102271.13;5140554;27;20194;-57
2021/01/16 03:27:33;;;;;;;12.18;6.00;;;;;;;-2.87;72.76;102282.88;5138630;27;20646;-56
2021/01/16 03:30:00;;;;;;;13.40;4.45;;;;;;;-2.82;72.34;102273.31;5140584;27;20289;-57
2021/01/16 03:32:27;;;;;;;12.85;5.43;;;;;;;-2.79;71.54;102269.53;5138708;27;20233;-57
2021/01/16 03:34:54;;;;;;;13.20;6.60;;;;;;;-2.81;71.81;102275.13;5140445;27;20199;-55
2021/01/16 03:37:21;;;;;;;12.52;5.63;;;;;;;-2.85;71.78;102273.84;5138743;27;20238;-57
2021/01/16 03:39:49;;;;;;;13.30;5.50;;;;;;;-2.90;71.84;102269.88;5140515;27;20203;-57
2021/01/16 03:42:15;;;;;;;13.88;6.47;;;;;;;-2.75;71.26;102268.28;5138586;27;20647;-57
2021/01/16 03:44:42;;;;;;;11.90;5.65;;;;;;;-2.83;71.36;102267.34;5140083;27;20293;-54
2021/01/16 03:47:09;;;;;;;15.38;5.60;;;;;;;-2.78;71.39;102265.41;5138411;27;20223;-56
2021/01/16 03:49:36;;;;;;;12.05;5.90;;;;;;;-2.72;71.10;102271.19;5140095;27;20237;-55
2021/01/16 03:52:03;;;;;;;14.13;5.78;;;;;;;-2.78;71.05;102265.41;5138322;27;20199;-56
2021/01/16 03:54:30;;;;;;;13.35;5.95;;;;;;;-2.80;71.21;102272.78;5139781;27;20309;-58
2021/01/16 03:56:57;;;;;;;13.13;5.68;;;;;;;-2.83;71.62;102271.53;5140034;27;20314;-57
2021/01/16 03:59:23;;;;;;;13.40;5.72;;;;;;;-2.75;71.09;102270.81;5139267;27;20306;-58
2021/01/16 04:01:50;;;;;;;11.68;5.70;;;;;;;-2.85;71.28;102274.78;5139740;27;20218;-58
2021/01/16 04:04:17;;;;;;;12.15;5.80;;;;;;;-2.78;71.20;102275.50;5138785;27;20238;-56
2021/01/16 04:06:44;;;;;;;12.80;5.65;;;;;;;-2.78;70.90;102275.50;5139833;27;20636;-58
2021/01/16 04:09:11;;;;;;;13.00;6.07;;;;;;;-2.81;71.22;102265.03;5138183;27;20249;-58
2021/01/16 04:11:38;;;;;;;16.20;5.78;;;;;;;-2.81;70.92;102265.03;5139807;27;20203;-58
2021/01/16 04:14:05;;;;;;;12.45;5.32;;;;;;;-2.83;71.34;102261.41;5137811;27;20242;-55
2021/01/16 04:16:32;;;;;;;14.38;5.80;;;;;;;-2.72;71.56;102256.91;5139920;27;20230;-59
2021/01/16 04:18:58;;;;;;;18.15;5.38;;;;;;;-2.73;70.44;102254.19;5137825;27;20242;-57
2021/01/16 04:21:25;;;;;;;10.07;5.30;;;;;;;-2.70;70.13;102254.59;5139706;27;20228;-58
2021/01/16 04:23:53;;;;;;;12.98;5.60;;;;;;;-2.74;70.26;102254.91;5137797;27;20496;-57
2021/01/16 04:26:19;;;;;;;13.40;5.97;;;;;;;-2.70;70.10;102249.53;5139414;27;20638;-57
2021/01/16 04:28:46;;;;;;;11.45;5.00;;;;;;;-2.82;70.57;102258.16;5137359;27;20322;-57
2021/01/16 04:31:13;;;;;;;11.65;5.07;;;;;;;-2.83;70.78;102256.38;5139686;27;20504;-58
2021/01/16 04:33:39;;;;;;;11.18;5.55;;;;;;;-2.77;70.93;102257.09;5137512;27;20234;-58
2021/01/16 04:36:07;;;;;;;12.68;5.65;;;;;;;-2.88;70.21;102251.66;5138962;27;20234;-56
2021/01/16 04:38:33;;;;;;;10.80;5.25;;;;;;;-2.85;70.93;102254.56;5137407;27;20234;-56
2021/01/16 04:41:05;;;;;;;11.10;4.95;;;;;;;-2.69;69.76;102251.31;5138631;27;20205;-54
2021/01/16 04:43:32;;;;;;;11.68;5.20;;;;;;;-2.71;69.86;102242.66;5137767;27;20321;-58
2021/01/16 04:46:04;;;;;;;12.05;5.80;;;;;;;-2.63;69.80;102244.47;5138599;27;20620;-54
2021/01/16 04:48:32;;;;;;;14.07;5.45;;;;;;;-2.74;70.36;102247.34;5137270;27;20253;-57
2021/01/16 04:51:00;;;;;;;10.35;5.22;;;;;;;-2.74;69.93;102247.34;5139137;27;20222;-58
2021/01/16 04:53:36;;;;;;;12.98;5.38;;;;;;;-2.76;69.70;102251.31;5134258;27;20230;-58
2021/01/16 04:56:05;;;;;;;12.77;5.18;;;;;;;-2.66;70.55;102241.59;5138929;27;20253;-57
2021/01/16 04:58:33;;;;;;;13.75;5.60;;;;;;;-2.74;69.48;102248.25;5137144;27;20320;-55
2021/01/16 05:01:03;;;;;;;12.35;5.10;;;;;;;-2.71;69.97;102245.19;5138912;27;20206;-57
2021/01/16 05:03:35;;;;;;;17.45;5.88;;;;;;;-2.72;69.68;102243.41;5137829;27;20285;-58
2021/01/16 05:06:06;;;;;;;9.82;4.95;;;;;;;-2.76;70.08;102246.28;5137886;27;20219;-57
2021/01/16 05:08:33;;;;;;;11.90;5.00;;;;;;;-2.89;69.77;102237.22;5136943;27;20259;-58
2021/01/16 05:11:06;;;;;;;12.63;6.00;;;;;;;-2.79;69.97;102243.34;5138717;27;20592;-57
2021/01/16 05:13:41;;;;;;;12.25;4.93;;;;;;;-2.80;70.05;102236.50;5137037;27;20274;-55
2021/01/16 05:16:11;;;;;;;12.77;5.85;;;;;;;-2.81;70.27;102239.75;5137993;27;20226;-57
2021/01/16 05:18:40;;;;;;;12.18;5.25;;;;;;;-2.76;70.28;102237.03;5136371;27;20241;-58
2021/01/16 05:21:08;;;;;;;11.55;5.50;;;;;;;-2.73;70.25;102228.94;5138423;27;20619;-58
2021/01/16 05:23:41;;;;;;;13.32;5.75;;;;;;;-2.87;71.11;102235.78;5136635;27;20734;-58
2021/01/16 05:26:09;;;;;;;11.70;5.32;;;;;;;-2.80;71.00;102229.84;5138037;27;20305;-57
2021/01/16 05:28:38;;;;;;;10.88;5.05;;;;;;;-2.76;70.30;102218.47;5136423;27;20555;-57
2021/01/16 05:31:06;;;;;;;12.15;6.00;;;;;;;-2.80;70.64;102227.31;5138330;27;20241;-57
2021/01/16 05:33:34;;;;;;;14.15;6.50;;;;;;;-2.76;70.06;102218.47;5136535;27;20242;-58
2021/01/16 05:36:02;;;;;;;9.95;4.80;;;;;;;-2.75;70.59;102215.22;5137988;27;20507;-57
2021/01/16 05:38:34;;;;;;;13.35;5.20;;;;;;;-2.75;70.42;102211.09;5136289;27;20571;-56
2021/01/16 05:41:04;;;;;;;17.08;6.95;;;;;;;-2.73;71.61;102201.13;5137615;27;20234;-57
2021/01/16 05:43:32;;;;;;;14.27;5.55;;;;;;;-2.77;71.00;102202.41;5136202;27;20262;-59
2021/01/16 05:46:01;;;;;;;12.85;5.63;;;;;;;-2.75;70.83;102197.53;5137562;27;20655;-58
2021/01/16 05:48:29;;;;;;;19.00;6.55;;;;;;;-2.78;71.01;102195.53;5136190;27;20258;-58
2021/01/16 05:50:56;;;;;;;15.00;6.15;;;;;;;-2.74;70.12;102191.75;5138044;27;20198;-58
2021/01/16 05:53:24;;;;;;;11.40;5.50;;;;;;;-2.67;70.66;102175.69;5136206;27;20244;-57
2021/01/16 05:55:51;;;;;;;12.63;5.07;;;;;;;-2.81;71.08;102180.03;5137355;27;20604;-58
2021/01/16 05:58:19;;;;;;;11.18;5.15;;;;;;;-2.72;70.65;102177.69;5136059;27;20244;-57
2021/01/16 06:00:51;;;;;;;15.25;6.32;;;;;;;-2.78;71.11;102179.50;5137685;27;20531;-57
2021/01/16 06:03:19;;;;;;;13.48;5.70;;;;;;;-2.70;71.01;102171.19;5135844;27;20300;-57
2021/01/16 06:05:48;;;;;;;12.60;6.07;;;;;;;-2.72;71.02;102180.22;5137259;27;20222;-59
2021/01/16 06:08:14;;;;;;;12.40;6.10;;;;;;;-2.70;70.77;102178.78;5135774;27;20234;-57
2021/01/16 06:10:42;;;;;;;12.52;5.15;;;;;;;-2.78;71.12;102180.38;5137367;27;20292;-57
2021/01/16 06:13:16;;;;;;;12.65;5.97;;;;;;;-2.67;71.34;102175.69;5135874;27;20242;-57
2021/01/16 06:15:47;;;;;;;13.05;6.32;;;;;;;-2.65;70.99;102174.25;5137062;27;20219;-56
2021/01/16 06:18:18;;;;;;;12.38;5.35;;;;;;;-2.60;70.72;102171.53;5133961;27;20231;-56
2021/01/16 06:20:50;;;;;;;12.95;5.30;;;;;;;-2.70;70.62;102168.66;5137461;27;20199;-58
2021/01/16 06:23:19;;;;;;;12.85;5.88;;;;;;;-2.72;71.34;102168.47;5135573;27;20245;-56
2021/01/16 06:25:48;;;;;;;11.23;5.65;;;;;;;-2.61;70.98;102162.16;5137050;27;20226;-58
2021/01/16 06:28:17;;;;;;;11.45;5.43;;;;;;;-2.66;70.87;102157.28;5135481;27;20238;-57
2021/01/16 06:30:46;;;;;;;10.25;5.35;;;;;;;-2.74;71.62;102156.38;5137279;27;20194;-58
2021/01/16 06:33:22;;;;;;;13.30;5.28;;;;;;;-2.97;72.22;102147.00;5135238;27;20243;-56
2021/01/16 06:35:57;;;;;;;14.77;5.65;;;;;;;-3.02;72.65;102148.06;5137033;27;20225;-57
2021/01/16 06:38:28;;;;;;;13.68;5.65;;;;;;;-3.18;73.61;102141.19;5135557;27;20234;-58
2021/01/16 06:40:54;;;;;;;11.75;6.07;;;;;;;-3.02;73.00;102146.44;5137007;27;20251;-58
2021/01/16 06:43:23;;;;;;;12.23;5.80;;;;;;;-2.97;72.38;102141.94;5135377;27;20599;-56
2021/01/16 06:45:49;;;;;;;12.93;6.32;;;;;;;-2.99;72.61;102138.31;5136786;27;20526;-58
2021/01/16 06:48:16;;;;;;;16.67;7.50;;;;;;;-3.12;73.89;102131.81;5134941;27;20331;-56
2021/01/16 06:50:47;;;;;;;14.10;6.50;;;;;;;-2.95;73.31;102130.38;5137179;27;20203;-58
2021/01/16 06:53:24;;;;;;;19.42;8.13;;;;;;;-3.00;73.40;102127.34;5135226;27;20249;-56
2021/01/16 06:56:04;;;;;;;12.65;5.05;;;;;;;-3.09;73.09;102128.75;5136535;27;20597;-57
2021/01/16 06:58:38;;;;;;;11.95;5.32;;;;;;;-3.03;72.90;102131.13;5134585;27;20253;-57
2021/01/16 07:01:07;;;;;;;14.02;5.50;;;;;;;-3.27;73.26;102120.78;5136478;28;20624;-58
2021/01/16 07:03:39;;;;;;;11.93;5.90;;;;;;;-3.25;73.20;102123.50;5134835;28;20241;-56
2021/01/16 07:06:07;;;;;;;12.93;5.80;;;;;;;-3.26;73.42;102116.66;5136603;28;20214;-57
2021/01/16 07:08:34;;;;;;;14.00;5.57;;;;;;;-3.40;73.85;102113.38;5135320;27;20238;-58
2021/01/16 07:11:01;;;;;;;15.60;7.57;;;;;;;-3.28;74.00;102108.88;5136575;28;20240;-58
2021/01/16 07:13:32;;;;;;;15.35;6.60;;;;;;;-3.19;73.31;102104.03;5134298;28;20246;-57
2021/01/16 07:15:59;;;;;;;15.95;7.00;;;;;;;-3.14;72.83;102107.09;5136474;28;20305;-57
2021/01/16 07:18:27;;;;;;;14.00;5.50;;;;;;;-3.32;73.38;102106.75;5135002;27;20239;-58
2021/01/16 07:20:57;;;;;;;12.05;5.35;;;;;;;-3.39;73.17;102110.13;5136584;28;20575;-56
2021/01/16 07:23:25;;;;;;;10.52;4.80;;;;;;;-3.27;73.42;102108.16;5132726;27;20317;-57
2021/01/16 07:25:52;;;;;;;12.90;5.60;;;;;;;-3.26;73.00;102111.59;5136616;28;20306;-58
2021/01/16 07:28:21;;;;;;;14.27;6.05;;;;;;;-3.37;73.65;102102.75;5134949;27;20587;-56
2021/01/16 07:30:48;;;;;;;16.52;6.28;;;;;;;-3.43;74.05;102102.91;5136733;28;20245;-57
2021/01/16 07:33:16;;;;;;;12.85;5.45;;;;;;;-3.42;73.60;102104.75;5134649;27;20239;-57
2021/01/16 07:35:49;;;;;;;12.18;5.30;;;;;;;-3.42;73.56;102108.88;5136166;28;20287;-56
2021/01/16 07:38:17;;;;;;;16.77;6.75;;;;;;;-3.41;73.44;102105.63;5134940;27;20241;-57
2021/01/16 07:40:47;;;;;;;14.40;6.82;;;;;;;-3.41;73.70;102104.00;5136613;28;20210;-55
2021/01/16 07:43:29;;;;;;;15.23;5.88;;;;;;;-3.39;73.90;102099.13;5134522;27;20313;-56
2021/01/16 07:46:00;;;;;;;12.68;5.63;;;;;;;-3.34;73.28;102102.22;5135995;28;20309;-56
2021/01/16 07:48:31;;;;;;;10.20;4.78;;;;;;;-3.31;72.83;102105.09;5134586;27;20242;-59
2021/01/16 07:50:59;;;;;;;15.45;6.25;;;;;;;-3.42;73.65;102102.22;5136626;28;20286;-58
2021/01/16 07:53:27;;;;;;;16.85;6.07;;;;;;;-3.38;73.18;102098.44;5134405;27;20258;-58
2021/01/16 07:56:02;;;;;;;10.90;5.22;;;;;;;-3.29;73.19;102096.06;5135891;28;20313;-59
2021/01/16 07:58:33;;;;;;;15.85;5.75;;;;;;;-3.32;73.54;102095.72;5134280;27;20658;-61
2021/01/16 08:01:02;;;;;;;13.18;5.95;;;;;;;-3.34;73.29;102094.66;5136153;28;20203;-60
2021/01/16 08:03:44;;;;;;;13.77;6.85;;;;;;;-3.25;73.03;102098.25;5135998;27;20520;-59
2021/01/16 08:06:15;;;;;;;11.60;4.72;;;;;;;-3.21;72.93;102095.38;5139836;27;20241;-59
2021/01/16 08:08:54;;;;;;;13.00;5.70;;;;;;;-3.34;73.15;102094.66;5138361;27;20315;-59
2021/01/16 08:11:27;;;;;;;11.23;4.80;;;;;;;-3.27;72.96;102092.13;5139734;27;20512;-60
2021/01/16 08:13:57;;;;;;;14.85;5.72;;;;;;;-3.28;73.35;102088.69;5137980;27;20231;-60
2021/01/16 08:16:24;;;;;;;18.80;5.45;;;;;;;-3.30;73.51;102091.75;5139768;27;20230;-60
2021/01/16 08:19:13;;;;;;;13.07;5.28;;;;;;;-3.22;73.25;102091.06;5137942;27;20262;-60
2021/01/16 08:21:50;;;;;;;11.15;5.38;;;;;;;-3.24;73.39;102089.94;5139612;27;20491;-60
2021/01/16 08:24:19;;;;;;;14.63;5.80;;;;;;;-3.27;73.13;102097.19;5137335;27;20655;-60
2021/01/16 08:26:54;;;;;;;12.68;5.68;;;;;;;-3.24;73.30;102097.53;5139586;27;20506;-60
2021/01/16 08:29:22;;;;;;;12.57;5.70;;;;;;;-3.19;73.67;102098.97;5137714;27;20260;-57
2021/01/16 08:31:49;;;;;;;13.13;5.97;;;;;;;-3.14;73.21;102097.91;5139337;27;20231;-59
2021/01/16 08:34:49;;;;;;;16.63;6.00;;;;;;;-3.16;73.12;102103.50;5137413;27;20776;-58
2021/01/16 08:37:27;;;;;;;16.17;5.80;;;;;;;-3.07;73.45;102106.22;5137725;27;20223;-58
2021/01/16 08:39:54;;;;;;;14.82;4.50;;;;;;;-3.12;73.23;102098.97;5139411;27;20221;-57
2021/01/16 08:42:25;;;;;;;9.23;4.80;;;;;;;-3.02;72.50;102102.59;5137482;27;20306;-58
2021/01/16 08:44:52;;;;;;;10.18;3.50;;;;;;;-3.03;72.83;102093.22;5139028;27;20255;-58
2021/01/16 08:47:19;;;;;;;12.90;6.20;;;;;;;-2.93;72.58;102096.09;5137070;27;20656;-57
2021/01/16 08:49:46;;;;;;;13.05;5.35;;;;;;;-2.93;72.63;102090.16;5138673;27;20500;-58
2021/01/16 08:52:13;;;;;;;11.55;4.90;;;;;;;-2.87;72.57;102089.25;5137274;27;20194;-58
2021/01/16 08:54:58;;;;;;;12.55;5.50;;;;;;;-2.76;72.85;102080.38;5138682;27;20203;-56
2021/01/16 08:57:30;;;;;;;14.55;6.15;;;;;;;-2.71;71.56;102086.00;5137014;27;20234;-58
2021/01/16 08:59:57;;;;;;;11.38;5.13;;;;;;;-2.65;71.70;102078.22;5138627;27;20238;-60
2021/01/16 09:02:23;;;;;;;13.13;5.68;;;;;;;-2.60;71.29;102075.47;5137179;27;20234;-60
2021/01/16 09:04:50;;;;;;;10.38;4.80;;;;;;;-2.61;70.42;102075.31;5138607;27;20195;-60
2021/01/16 09:07:20;;;;;;;12.70;5.32;;;;;;;-2.63;70.98;102076.75;5135946;27;20727;-61
2021/01/16 09:09:54;;;;;;;10.93;4.97;;;;;;;-2.46;70.72;102081.25;5138145;27;20206;-58
2021/01/16 09:12:30;;;;;;;12.40;5.45;;;;;;;-2.34;69.86;102075.09;5136966;27;20237;-56
2021/01/16 09:15:18;;;;;;;11.20;5.20;;;;;;;-2.42;69.81;102074.94;5137330;27;20293;-58
2021/01/16 09:18:06;;;;;;;29.40;12.13;;;;;;;-2.17;70.13;102074.47;5136779;27;20644;-59
2021/01/16 09:20:34;;;;;;;12.55;5.00;;;;;;;-2.27;68.90;102075.78;5138538;27;20497;-57
2021/01/16 09:23:26;;;;;;;16.65;5.53;;;;;;;-2.18;69.58;102072.69;5136701;27;20238;-58
2021/01/16 09:25:55;;;;;;;11.27;5.10;;;;;;;-2.07;69.86;102066.31;5138152;27;20226;-58
2021/01/16 09:28:49;;;;;;;10.95;5.00;;;;;;;-2.09;70.01;102067.78;5136361;27;20237;-59
2021/01/16 09:31:21;;;;;;;16.58;6.00;;;;;;;-2.08;69.65;102061.97;5138425;27;20198;-58
2021/01/16 09:33:49;;;;;;;29.67;11.68;;;;;;;-2.00;70.14;102061.94;5136368;27;20231;-58
2021/01/16 09:36:34;;;;;;;11.68;5.35;;;;;;;-1.98;70.16;102065.53;5137719;27;20226;-58
2021/01/16 09:39:02;;;;;;;15.15;5.35;;;;;;;-1.95;69.19;102065.91;5136250;27;20246;-57
2021/01/16 09:41:32;;;;;;;10.80;4.38;;;;;;;-2.00;69.10;102067.88;5138349;27;20202;-59
2021/01/16 09:44:00;;;;;;;12.25;5.10;;;;;;;-1.97;68.00;102065.72;5135807;27;20317;-59
2021/01/16 09:46:33;;;;;;;9.40;4.88;;;;;;;-1.99;68.61;102059.59;5137789;27;20309;-58
2021/01/16 09:48:59;;;;;;;13.32;5.32;;;;;;;-2.08;68.06;102061.97;5136215;27;20283;-58
2021/01/16 09:51:29;;;;;;;12.27;4.80;;;;;;;-1.95;68.92;102056.66;5137898;27;20283;-57
2021/01/16 09:54:13;;;;;;;13.25;5.63;;;;;;;-2.01;68.28;102057.63;5136001;27;20240;-58
2021/01/16 09:56:45;;;;;;;13.85;4.35;;;;;;;-2.11;67.39;102054.03;5138062;27;20305;-58
2021/01/16 09:59:23;;;;;;;10.75;4.90;;;;;;;-1.99;68.01;102053.63;5135896;27;20659;-57
2021/01/16 10:02:08;;;;;;;12.65;5.13;;;;;;;-1.92;67.91;102056.13;5137586;27;20206;-59
2021/01/16 10:04:40;;;;;;;16.90;5.00;;;;;;;-1.94;67.34;102052.53;5136906;27;20233;-58
2021/01/16 10:07:10;;;;;;;16.83;5.95;;;;;;;-1.87;67.80;102056.63;5136475;27;20218;-58
2021/01/16 10:09:44;;;;;;;12.15;6.10;;;;;;;-1.81;67.99;102050.63;5137450;27;20250;-59
2021/01/16 10:12:43;;;;;;;13.70;5.18;;;;;;;-1.75;67.64;102049.53;5135629;27;20281;-59
2021/01/16 10:15:12;;;;;;;9.82;5.38;;;;;;;-1.78;67.12;102050.09;5137332;27;20230;-58
2021/01/16 10:17:44;;;;;;;11.73;4.43;;;;;;;-1.98;67.76;102055.41;5135637;27;20234;-57
2021/01/16 10:20:13;;;;;;;14.60;7.47;;;;;;;-1.96;67.64;102056.47;5137247;27;20195;-58
2021/01/16 10:22:43;;;;;;;14.80;7.25;;;;;;;-1.85;68.22;102048.47;5135314;27;20539;-58
2021/01/16 10:25:11;;;;;;;14.20;5.50;;;;;;;-1.75;67.21;102034.34;5137161;27;20278;-59
2021/01/16 10:27:43;;;;;;;18.35;7.35;;;;;;;-1.65;67.52;102038.06;5134881;27;20234;-55
2021/01/16 10:30:21;;;;;;;16.25;6.38;;;;;;;-1.69;66.99;102032.50;5137255;27;20207;-57
2021/01/16 10:32:49;;;;;;;13.38;4.88;;;;;;;-1.75;66.80;102035.22;5135454;27;20222;-58
2021/01/16 10:35:20;;;;;;;5.35;2.17;;;;;;;-1.91;66.97;102022.50;5136813;27;20463;-58
2021/01/16 10:37:46;;;;;;;9.70;4.05;;;;;;;-1.92;66.05;102016.56;5135327;27;20234;-57
2021/01/16 10:40:14;;;;;;;7.60;3.13;;;;;;;-2.00;66.38;102016.41;5137175;27;20195;-57
2021/01/16 10:42:44;;;;;;;11.98;3.58;;;;;;;-2.14;67.09;102012.31;5135203;27;20311;-57
2021/01/16 10:45:12;;;;;;;12.07;4.95;;;;;;;-2.05;67.03;102003.25;5136681;27;20237;-57
2021/01/16 10:47:42;;;;;;;10.15;4.65;;;;;;;-1.91;66.50;102007.31;5135369;27;20245;-57
2021/01/16 10:50:10;;;;;;;7.15;3.30;;;;;;;-1.88;66.45;102002.59;5137184;27;20202;-56
2021/01/16 10:52:38;;;;;;;5.80;2.15;;;;;;;-1.98;66.54;102004.81;5135170;27;20265;-53
2021/01/16 10:55:06;;;;;;;14.20;5.30;;;;;;;-2.02;67.74;102003.59;5136110;27;20287;-58
2021/01/16 10:57:41;;;;;;;9.23;3.85;;;;;;;-1.99;67.50;101997.97;5132645;27;20535;-55
2021/01/16 11:00:12;;;;;;;12.60;5.00;;;;;;;-1.89;67.33;101993.22;5136373;27;20288;-58
2021/01/16 11:02:44;;;;;;;12.70;5.65;;;;;;;-1.82;67.55;101983.03;5134524;28;20642;-58
2021/01/16 11:05:19;;;;;;;13.05;5.70;;;;;;;-1.73;67.03;101984.78;5136486;28;20198;-56
2021/01/16 11:07:46;;;;;;;11.27;4.32;;;;;;;-1.63;67.56;101982.56;5134917;27;20283;-57
2021/01/16 11:10:14;;;;;;;17.42;6.75;;;;;;;-1.60;66.96;101976.94;5136339;28;20259;-58
2021/01/16 11:12:42;;;;;;;12.48;4.00;;;;;;;-1.77;67.85;101973.44;5134067;27;20238;-56
2021/01/16 11:15:25;;;;;;;14.38;5.03;;;;;;;-1.84;66.23;101969.31;5136280;28;20281;-58
2021/01/16 11:17:56;;;;;;;8.52;3.85;;;;;;;-1.81;66.81;101963.69;5134769;28;20230;-57
2021/01/16 11:20:25;;;;;;;11.60;4.32;;;;;;;-1.88;66.70;101962.13;5136721;28;20206;-57
2021/01/16 11:23:18;;;;;;;9.50;3.10;;;;;;;-1.91;66.75;101961.75;5134254;28;20238;-57
2021/01/16 11:25:46;;;;;;;15.40;6.28;;;;;;;-1.92;67.38;101959.97;5135905;28;20219;-58
2021/01/16 11:28:13;;;;;;;15.18;5.82;;;;;;;-1.87;67.83;101951.28;5134052;28;20248;-56
2021/01/16 11:30:42;;;;;;;11.88;5.10;;;;;;;-1.87;67.68;101946.22;5136357;28;20664;-57